RJTY(METAR)
05/26 17:03
RJTY 260803Z AUTO 00000KT 10SM FEW100 21/19 A2976 RMK AO2
RAE01DZB01E03 SLP078 FZRANO $=
戻る
トップページへ戻る
IMOC Co,.Ltd.